Time;durP1;ratioP1;P1;durP2;ratioP2;P2;SDS_P1;SDS_P2;PMS_P1;PMS_P2;Temp;Humidity;BMP_temperature;BMP_pressure;BME280_temperature;BME280_humidity;BME280_pressure;Samples;Min_cycle;Max_cycle;Signal;HPM_P1;HPM_P2
2022/11/07 00:01:45;;;;;;;;;;;;;;;21.02;56.49;100055.19;7258272;19;154739;-58
2022/11/07 00:04:12;;;;;;;;;;;;;;;21.01;56.52;100054.38;7257853;19;153387;-58
2022/11/07 00:06:39;;;;;;;;;;;;;;;21.00;56.49;100052.72;7255646;19;154555;-57
2022/11/07 00:09:07;;;;;;;;;;;;;;;21.01;56.74;100054.38;7255496;19;154659;-58
2022/11/07 00:11:34;;;;;;;;;;;;;;;21.02;56.71;100056.03;7257411;19;154207;-57
2022/11/07 00:14:02;;;;;;;;;;;;;;;20.99;56.63;100051.06;7256461;19;153816;-58
2022/11/07 00:16:30;;;;;;;;;;;;;;;21.01;56.55;100061.97;7260536;19;153100;-58
2022/11/07 00:18:58;;;;;;;;;;;;;;;21.02;56.59;100072.06;7259798;19;152295;-58
2022/11/07 00:21:25;;;;;;;;;;;;;;;21.00;56.25;100061.13;7255033;19;154641;-57
2022/11/07 00:23:52;;;;;;;;;;;;;;;21.00;56.44;100063.94;7255914;19;153702;-57
2022/11/07 00:26:19;;;;;;;;;;;;;;;21.02;56.79;100069.25;7257464;19;152748;-57
2022/11/07 00:28:47;;;;;;;;;;;;;;;20.99;56.31;100069.88;7253316;19;153623;-57
2022/11/07 00:31:15;;;;;;;;;;;;;;;21.00;56.50;100078.00;7256808;19;153732;-57
2022/11/07 00:33:43;;;;;;;;;;;;;;;20.98;56.66;100079.50;7255993;19;153275;-56
2022/11/07 00:36:16;;;;;;;;;;;;;;;20.99;56.30;100072.69;7262781;19;153061;-57
2022/11/07 00:38:43;;;;;;;;;;;;;;;20.98;56.40;100076.69;7257841;19;153929;-58
2022/11/07 00:41:11;;;;;;;;;;;;;;;20.98;56.49;100069.09;7256741;19;153592;-56
2022/11/07 00:43:38;;;;;;;;;;;;;;;20.97;56.25;100078.66;7256503;19;154214;-56
2022/11/07 00:46:07;;;;;;;;;;;;;;;20.97;56.49;100081.47;7255756;19;153623;-56
2022/11/07 00:48:35;;;;;;;;;;;;;;;20.93;56.74;100079.66;7251899;19;154179;-56
2022/11/07 00:51:05;;;;;;;;;;;;;;;20.92;56.50;100081.63;7256185;19;153152;-56
2022/11/07 00:53:32;;;;;;;;;;;;;;;20.93;56.41;100079.66;7255679;19;154592;-56
2022/11/07 00:56:03;;;;;;;;;;;;;;;20.92;56.27;100081.63;7254951;19;153657;-56
2022/11/07 00:58:31;;;;;;;;;;;;;;;20.90;56.85;100081.13;7259312;19;153324;-56
2022/11/07 01:00:59;;;;;;;;;;;;;;;20.89;56.55;100082.31;7255497;19;155231;-57
2022/11/07 01:06:03;;;;;;;;;;;;;;;20.85;56.69;100082.13;7256962;19;153864;-57
2022/11/07 01:08:34;;;;;;;;;;;;;;;20.84;56.63;100080.50;7252495;19;156908;-58
2022/11/07 01:11:04;;;;;;;;;;;;;;;20.83;57.10;100086.44;7255225;19;154048;-57
2022/11/07 01:13:32;;;;;;;;;;;;;;;20.80;57.06;100090.72;7253588;19;152911;-57
2022/11/07 01:15:59;;;;;;;;;;;;;;;20.81;56.89;100095.19;7251677;19;155612;-57
2022/11/07 01:18:27;;;;;;;;;;;;;;;20.80;56.60;100092.72;7255063;19;153732;-57
2022/11/07 01:20:55;;;;;;;;;;;;;;;20.78;56.62;100095.84;7258723;19;155539;-57
2022/11/07 01:23:23;;;;;;;;;;;;;;;20.78;56.83;100090.25;7257142;19;154458;-57
2022/11/07 01:25:51;;;;;;;;;;;;;;;20.76;56.55;100081.31;7253618;19;154628;-58
2022/11/07 01:28:19;;;;;;;;;;;;;;;20.77;57.09;100093.38;7250794;19;156158;-58
2022/11/07 01:30:46;;;;;;;;;;;;;;;20.74;56.93;100091.22;7255632;19;153937;-58
2022/11/07 01:33:13;;;;;;;;;;;;;;;20.73;56.80;100083.97;7255843;19;154958;-58
2022/11/07 01:35:40;;;;;;;;;;;;;;;20.70;56.85;100081.81;7250541;19;153129;-58
2022/11/07 01:38:07;;;;;;;;;;;;;;;20.69;56.93;100083.81;7252287;19;153588;-58
2022/11/07 01:41:19;;;;;;;;;;;;;;;20.70;57.24;100087.44;7253291;19;154498;-58
2022/11/07 01:43:35;;;;;;;;;;;;;;;20.68;57.09;100073.72;7254470;19;153531;-58
2022/11/07 01:46:02;;;;;;;;;;;;;;;20.66;57.05;100081.66;7249623;19;154115;-58
2022/11/07 01:48:29;;;;;;;;;;;;;;;20.64;57.38;100089.59;7250527;19;155167;-58
2022/11/07 01:50:56;;;;;;;;;;;;;;;20.63;57.23;100085.13;7252148;19;153988;-58
2022/11/07 01:53:23;;;;;;;;;;;;;;;20.62;57.32;100086.28;7254372;19;153916;-58
2022/11/07 01:55:49;;;;;;;;;;;;;;;20.62;57.54;100082.66;7249352;19;153888;-58
2022/11/07 01:58:16;;;;;;;;;;;;;;;20.60;57.41;100090.56;7249751;19;153819;-57
2022/11/07 02:00:44;;;;;;;;;;;;;;;20.58;57.24;100085.28;7254645;19;154090;-57
2022/11/07 02:03:14;;;;;;;;;;;;;;;20.57;57.64;100088.44;7256817;19;155529;-57
2022/11/07 02:05:47;;;;;;;;;;;;;;;20.56;57.22;100090.41;7262729;19;153761;-57
2022/11/07 02:08:15;;;;;;;;;;;;;;;20.55;57.61;100087.91;7252913;19;155631;-56
2022/11/07 02:10:42;;;;;;;;;;;;;;;20.53;57.62;100085.47;7254199;19;154342;-57
2022/11/07 02:13:14;;;;;;;;;;;;;;;20.53;57.96;100096.69;7257414;19;154958;-57
2022/11/07 02:15:41;;;;;;;;;;;;;;;20.52;57.60;100086.63;7254580;19;155190;-57
2022/11/07 02:18:09;;;;;;;;;;;;;;;20.51;57.89;100096.19;7257895;19;153766;-57
2022/11/07 02:20:36;;;;;;;;;;;;;;;20.50;57.69;100088.91;7253655;19;155408;-58
2022/11/07 02:23:05;;;;;;;;;;;;;;;20.49;57.79;100098.47;7254881;19;154865;-57
2022/11/07 02:25:33;;;;;;;;;;;;;;;20.48;58.19;100104.44;7263173;19;153739;-57
2022/11/07 02:28:03;;;;;;;;;;;;;;;20.47;58.09;100109.22;7253801;19;153591;-58
2022/11/07 02:30:32;;;;;;;;;;;;;;;20.46;57.85;100103.94;7252971;19;154974;-57
2022/11/07 02:33:01;;;;;;;;;;;;;;;20.45;58.13;100103.09;7255141;19;154190;-57
2022/11/07 02:35:35;;;;;;;;;;;;;;;20.45;58.37;100105.06;7253148;19;154714;-57
2022/11/07 02:38:04;;;;;;;;;;;;;;;20.45;57.94;100116.28;7253205;19;153826;-57
2022/11/07 02:40:32;;;;;;;;;;;;;;;20.42;58.20;100113.00;7255244;19;153399;-57
2022/11/07 02:42:59;;;;;;;;;;;;;;;20.41;58.12;100113.34;7253803;19;154143;-56
2022/11/07 02:45:29;;;;;;;;;;;;;;;20.40;58.11;100111.66;7255971;19;153901;-57
2022/11/07 02:47:56;;;;;;;;;;;;;;;20.38;58.14;100103.59;7260641;19;153171;-56
2022/11/07 02:50:24;;;;;;;;;;;;;;;20.38;58.46;100117.63;7256029;19;153662;-57
2022/11/07 02:52:51;;;;;;;;;;;;;;;20.38;58.41;100126.06;7255010;19;153096;-57
2022/11/07 02:55:19;;;;;;;;;;;;;;;20.36;58.68;100121.91;7254601;19;153924;-56
2022/11/07 02:57:46;;;;;;;;;;;;;;;20.35;58.41;100114.66;7252025;19;153189;-57
2022/11/07 03:00:14;;;;;;;;;;;;;;;20.35;58.69;100114.66;7252397;19;154177;-57
2022/11/07 03:02:45;;;;;;;;;;;;;;;20.34;58.48;100113.00;7254324;19;155529;-57
2022/11/07 03:05:15;;;;;;;;;;;;;;;20.34;58.61;100113.84;7260766;19;154079;-57
2022/11/07 03:07:43;;;;;;;;;;;;;;;20.31;58.87;100111.66;7261111;19;153988;-57
2022/11/07 03:10:12;;;;;;;;;;;;;;;20.31;58.82;100105.22;7265481;19;153532;-57
2022/11/07 03:12:40;;;;;;;;;;;;;;;20.30;58.69;100107.22;7260346;19;155608;-58
2022/11/07 03:15:09;;;;;;;;;;;;;;;20.28;58.86;100106.69;7258130;19;154205;-57
2022/11/07 03:17:36;;;;;;;;;;;;;;;20.29;59.04;100104.72;7259259;19;151860;-57
2022/11/07 03:20:04;;;;;;;;;;;;;;;20.26;59.02;100108.19;7260220;19;156022;-57
2022/11/07 03:22:32;;;;;;;;;;;;;;;20.27;58.83;100107.00;7259201;19;153400;-57
2022/11/07 03:24:59;;;;;;;;;;;;;;;20.26;59.31;100108.19;7261123;19;154970;-57
2022/11/07 03:27:26;;;;;;;;;;;;;;;20.24;58.97;100116.06;7255909;19;153729;-57
2022/11/07 03:29:53;;;;;;;;;;;;;;;20.25;58.95;100117.75;7258804;19;154292;-56
2022/11/07 03:32:21;;;;;;;;;;;;;;;20.25;59.27;100115.75;7265184;19;154610;-56
2022/11/07 03:34:48;;;;;;;;;;;;;;;20.24;59.48;100113.28;7258252;19;154177;-56
2022/11/07 03:37:16;;;;;;;;;;;;;;;20.23;59.38;100114.41;7258334;19;152282;-57
2022/11/07 03:39:43;;;;;;;;;;;;;;;20.22;59.15;100123.97;7259134;19;153331;-57
2022/11/07 03:42:10;;;;;;;;;;;;;;;20.22;59.24;100121.19;7258381;19;156885;-57
2022/11/07 03:44:37;;;;;;;;;;;;;;;20.20;59.31;100118.72;7256878;19;152189;-57
2022/11/07 03:47:05;;;;;;;;;;;;;;;20.20;59.85;100124.31;7255429;19;153842;-57
2022/11/07 03:49:32;;;;;;;;;;;;;;;20.20;59.86;100118.72;7254060;19;153281;-57
2022/11/07 03:52:00;;;;;;;;;;;;;;;20.19;59.88;100119.03;7259906;19;154471;-57
2022/11/07 03:54:28;;;;;;;;;;;;;;;20.19;60.03;100116.22;7262512;19;153235;-57
2022/11/07 03:56:56;;;;;;;;;;;;;;;20.18;59.78;100123.81;7258958;19;153021;-57
2022/11/07 03:59:24;;;;;;;;;;;;;;;20.18;60.28;100122.97;7256014;19;154156;-58
2022/11/07 04:01:52;;;;;;;;;;;;;;;20.17;60.19;100129.78;7256682;19;153987;-57
2022/11/07 04:04:20;;;;;;;;;;;;;;;20.15;60.17;100121.66;7255787;19;153362;-58
2022/11/07 04:06:48;;;;;;;;;;;;;;;20.15;60.35;100123.66;7258039;19;152067;-57
2022/11/07 04:09:16;;;;;;;;;;;;;;;20.14;60.65;100125.63;7256105;19;154726;-57
2022/11/07 04:19:45;;;;;;;;;;;;;;;20.13;61.08;100114.72;7259355;19;154571;-57
2022/11/07 04:22:13;;;;;;;;;;;;;;;20.12;60.61;100118.69;7255975;19;153810;-57
2022/11/07 04:24:42;;;;;;;;;;;;;;;20.12;60.97;100113.09;7256197;19;152711;-57
2022/11/07 04:29:49;;;;;;;;;;;;;;;20.10;60.93;100112.56;7255223;19;154947;-57
2022/11/07 04:32:17;;;;;;;;;;;;;;;20.10;61.03;100112.56;7251392;19;154730;-57
2022/11/07 04:34:44;;;;;;;;;;;;;;;20.09;61.04;100116.53;7258339;19;153406;-57
2022/11/07 04:37:11;;;;;;;;;;;;;;;20.06;61.28;100114.38;7259879;19;153953;-57
2022/11/07 04:39:41;;;;;;;;;;;;;;;20.07;61.38;100114.06;7258322;19;152714;-57
2022/11/07 04:42:08;;;;;;;;;;;;;;;20.07;60.92;100116.03;7252461;19;152482;-57
2022/11/07 04:44:36;;;;;;;;;;;;;;;20.06;61.18;100114.38;7256698;19;153529;-56
2022/11/07 04:47:04;;;;;;;;;;;;;;;20.06;61.42;100111.59;7258112;19;155402;-57
2022/11/07 04:49:31;;;;;;;;;;;;;;;20.04;61.34;100114.69;7252933;19;154949;-57
2022/11/07 04:51:59;;;;;;;;;;;;;;;20.05;61.27;100118.34;7257008;19;154067;-57
2022/11/07 04:54:26;;;;;;;;;;;;;;;20.04;61.51;100122.28;7256609;19;154104;-57
2022/11/07 04:56:53;;;;;;;;;;;;;;;20.03;61.41;100115.88;7254913;19;155791;-57
2022/11/07 04:59:21;;;;;;;;;;;;;;;20.03;61.42;100117.84;7262607;19;153269;-56
2022/11/07 05:01:48;;;;;;;;;;;;;;;20.03;61.57;100115.03;7254849;19;154643;-56
2022/11/07 05:04:15;;;;;;;;;;;;;;;20.01;61.74;100115.34;7255875;19;154031;-57
2022/11/07 05:06:42;;;;;;;;;;;;;;;20.00;61.54;100124.91;7257158;19;154479;-57
2022/11/07 05:09:14;;;;;;;;;;;;;;;20.01;61.70;100120.13;7255076;19;154375;-56
2022/11/07 05:11:42;;;;;;;;;;;;;;;20.01;61.20;100125.75;7254634;19;153688;-56
2022/11/07 05:14:11;;;;;;;;;;;;;;;19.99;61.47;100123.25;7254858;19;152838;-56
2022/11/07 05:16:41;;;;;;;;;;;;;;;19.99;61.68;100129.69;7254524;19;154479;-56
2022/11/07 05:19:15;;;;;;;;;;;;;;;19.99;61.43;100140.91;7254777;19;153471;-56
2022/11/07 05:21:43;;;;;;;;;;;;;;;19.99;61.16;100129.69;7260371;19;154610;-56
2022/11/07 05:24:10;;;;;;;;;;;;;;;19.98;61.25;100128.06;7256991;19;152785;-57
2022/11/07 05:26:37;;;;;;;;;;;;;;;19.98;61.53;100130.88;7249419;19;153436;-57
2022/11/07 05:29:07;;;;;;;;;;;;;;;19.98;62.65;100119.66;7253914;19;154143;-57
2022/11/07 05:31:35;;;;;;;;;;;;;;;20.01;62.37;100129.38;7256100;19;152935;-57
2022/11/07 05:34:02;;;;;;;;;;;;;;;20.05;62.71;100121.97;7258737;19;154589;-57
2022/11/07 05:36:30;;;;;;;;;;;;;;;20.06;62.90;100120.81;7254450;19;154475;-57
2022/11/07 05:38:57;;;;;;;;;;;;;;;20.09;63.35;100128.56;7257845;19;153380;-57
2022/11/07 05:41:24;;;;;;;;;;;;;;;20.12;63.55;100119.53;7252802;19;154948;-57
2022/11/07 05:43:51;;;;;;;;;;;;;;;20.16;63.63;100119.69;7258673;19;154868;-57
2022/11/07 05:46:18;;;;;;;;;;;;;;;20.20;63.92;100126.31;7255612;19;154435;-57
2022/11/07 05:48:45;;;;;;;;;;;;;;;20.25;63.80;100134.56;7254907;19;154858;-57
2022/11/07 05:51:12;;;;;;;;;;;;;;;20.29;64.00;100122.38;7255302;19;154209;-57
2022/11/07 05:53:39;;;;;;;;;;;;;;;20.34;64.09;100125.06;7256309;19;152906;-58
2022/11/07 05:56:06;;;;;;;;;;;;;;;20.39;64.60;100126.88;7254252;19;153602;-57
2022/11/07 05:58:33;;;;;;;;;;;;;;;20.44;64.73;100126.72;7249723;19;154350;-57
2022/11/07 06:01:01;;;;;;;;;;;;;;;20.49;64.71;100120.13;7252486;19;154295;-57
2022/11/07 06:03:29;;;;;;;;;;;;;;;20.53;64.68;100116.34;7252667;19;153724;-57
2022/11/07 06:05:56;;;;;;;;;;;;;;;20.58;64.63;100104.13;7262616;19;154531;-57
2022/11/07 06:08:23;;;;;;;;;;;;;;;20.62;64.74;100117.16;7252412;19;153966;-57
2022/11/07 06:10:50;;;;;;;;;;;;;;;20.67;64.30;100114.16;7252152;19;152661;-57
2022/11/07 06:13:17;;;;;;;;;;;;;;;20.71;64.46;100111.56;7255174;19;153966;-58
2022/11/07 06:15:44;;;;;;;;;;;;;;;20.76;63.89;100117.81;7251033;19;153740;-58
2022/11/07 06:18:13;;;;;;;;;;;;;;;20.82;63.56;100124.09;7256602;19;153670;-57
2022/11/07 06:20:40;;;;;;;;;;;;;;;20.86;63.86;100119.47;7252381;19;154187;-58
2022/11/07 06:23:07;;;;;;;;;;;;;;;20.91;63.47;100124.09;7251234;19;154586;-58
2022/11/07 06:25:34;;;;;;;;;;;;;;;20.96;63.30;100129.53;7253764;19;154080;-60
2022/11/07 06:28:04;;;;;;;;;;;;;;;21.01;63.18;100126.56;7259617;19;154055;-57
2022/11/07 06:30:31;;;;;;;;;;;;;;;21.06;63.06;100130.03;7248645;19;152352;-57
2022/11/07 06:32:59;;;;;;;;;;;;;;;21.10;62.71;100130.19;7253124;19;153922;-57
2022/11/07 06:35:27;;;;;;;;;;;;;;;21.15;62.78;100130.06;7253172;19;154406;-58
2022/11/07 06:37:54;;;;;;;;;;;;;;;21.20;63.24;100129.88;7252519;19;153896;-58
2022/11/07 06:40:21;;;;;;;;;;;;;;;21.23;62.82;100130.03;7254383;19;153326;-58
2022/11/07 06:42:48;;;;;;;;;;;;;;;21.27;62.80;100131.00;7250093;19;153485;-58
2022/11/07 06:45:15;;;;;;;;;;;;;;;21.30;62.52;100130.34;7252113;19;153899;-58
2022/11/07 06:47:42;;;;;;;;;;;;;;;21.34;62.35;100136.13;7261738;19;153799;-56
2022/11/07 06:50:09;;;;;;;;;;;;;;;21.38;62.41;100142.75;7251799;19;154037;-58
2022/11/07 06:52:36;;;;;;;;;;;;;;;21.41;62.50;100149.66;7252027;19;154095;-58
2022/11/07 06:55:03;;;;;;;;;;;;;;;21.44;62.32;100146.22;7249864;19;155114;-58
2022/11/07 06:57:30;;;;;;;;;;;;;;;21.46;62.35;100143.88;7253976;19;153880;-58
2022/11/07 06:59:58;;;;;;;;;;;;;;;21.48;61.96;100145.22;7253290;19;153366;-58
2022/11/07 07:02:25;;;;;;;;;;;;;;;21.49;62.37;100138.41;7251615;19;154867;-58
2022/11/07 07:05:12;;;;;;;;;;;;;;;21.50;61.90;100139.22;7254623;19;154304;-58
2022/11/07 07:07:46;;;;;;;;;;;;;;;21.52;61.44;100142.53;7255709;19;153916;-57
2022/11/07 07:10:13;;;;;;;;;;;;;;;21.54;61.61;100140.22;7260862;19;154701;-57
2022/11/07 07:12:40;;;;;;;;;;;;;;;21.54;61.51;100148.63;7253240;19;154061;-57
2022/11/07 07:15:08;;;;;;;;;;;;;;;21.58;60.33;100150.44;7246318;19;153474;-58
2022/11/07 07:17:34;;;;;;;;;;;;;;;21.58;60.67;100158.88;7254039;19;153381;-60
2022/11/07 07:20:03;;;;;;;;;;;;;;;21.58;61.36;100158.88;7251676;19;153241;-57
2022/11/07 07:22:30;;;;;;;;;;;;;;;21.58;60.74;100164.50;7253528;19;153498;-57
2022/11/07 07:24:57;;;;;;;;;;;;;;;21.58;60.96;100175.75;7253694;19;153651;-57
2022/11/07 07:27:24;;;;;;;;;;;;;;;21.59;60.78;100170.94;7250977;19;153678;-57
2022/11/07 07:29:52;;;;;;;;;;;;;;;21.59;60.76;100177.41;7249457;19;153618;-57
2022/11/07 07:32:20;;;;;;;;;;;;;;;21.59;60.59;100177.41;7260033;19;153138;-57
2022/11/07 07:34:47;;;;;;;;;;;;;;;21.60;61.10;100175.41;7252282;19;154189;-57
2022/11/07 07:37:14;;;;;;;;;;;;;;;21.59;60.60;100179.38;7251661;19;153693;-57
2022/11/07 07:39:41;;;;;;;;;;;;;;;21.58;60.73;100172.94;7250238;19;153588;-58
2022/11/07 07:42:08;;;;;;;;;;;;;;;21.59;60.73;100182.19;7252637;19;154323;-58
2022/11/07 07:44:35;;;;;;;;;;;;;;;21.58;60.39;100186.16;7245765;19;154310;-58
2022/11/07 07:47:02;;;;;;;;;;;;;;;21.57;60.51;100184.53;7253288;19;153341;-58
2022/11/07 07:49:36;;;;;;;;;;;;;;;21.58;60.53;100188.97;7254146;19;154540;-57
2022/11/07 07:52:04;;;;;;;;;;;;;;;21.57;60.55;100181.72;7259205;19;155158;-58
2022/11/07 07:54:31;;;;;;;;;;;;;;;21.58;60.64;100191.78;7265358;19;153586;-58
2022/11/07 07:57:00;;;;;;;;;;;;;;;21.55;60.43;100187.66;7259319;19;152994;-58
2022/11/07 07:59:27;;;;;;;;;;;;;;;21.56;60.26;100185.69;7256410;19;154021;-58
2022/11/07 08:01:54;;;;;;;;;;;;;;;21.54;60.35;100188.81;7260031;19;154488;-57
2022/11/07 08:04:23;;;;;;;;;;;;;;;21.56;60.44;100194.13;7259306;19;155784;-57
2022/11/07 08:06:50;;;;;;;;;;;;;;;21.61;61.14;100196.75;7259311;19;154248;-58
2022/11/07 08:09:17;;;;;;;;;;;;;;;21.65;61.00;100198.56;7254165;19;154092;-58
2022/11/07 08:11:44;;;;;;;;;;;;;;;21.64;61.36;100196.91;7257273;19;154309;-59
2022/11/07 08:14:11;;;;;;;;;;;;;;;21.65;61.10;100200.56;7255701;19;153365;-59
2022/11/07 08:16:38;;;;;;;;;;;;;;;21.64;60.94;100199.72;7264942;19;154171;-59
2022/11/07 08:19:05;;;;;;;;;;;;;;;21.65;60.71;100204.19;7259367;19;154035;-58
2022/11/07 08:21:32;;;;;;;;;;;;;;;21.64;61.11;100191.28;7258256;19;154346;-59
2022/11/07 08:24:02;;;;;;;;;;;;;;;21.65;61.05;100198.56;7260768;19;154527;-58
2022/11/07 08:26:30;;;;;;;;;;;;;;;21.66;60.73;100191.78;7255727;19;154209;-58
2022/11/07 08:28:57;;;;;;;;;;;;;;;21.68;59.73;100195.06;7257696;19;153988;-59
2022/11/07 08:31:24;;;;;;;;;;;;;;;21.68;60.21;100192.25;7256817;19;153479;-59
2022/11/07 08:33:57;;;;;;;;;;;;;;;21.68;60.34;100197.06;7258629;19;153918;-59
2022/11/07 08:36:24;;;;;;;;;;;;;;;21.67;60.54;100201.03;7256405;19;156102;-59
2022/11/07 08:38:52;;;;;;;;;;;;;;;21.67;60.69;100195.41;7265574;19;154004;-59
2022/11/07 08:41:19;;;;;;;;;;;;;;;21.68;60.14;100194.25;7256335;19;154725;-59
2022/11/07 08:43:48;;;;;;;;;;;;;;;21.68;60.59;100197.06;7253973;19;152475;-59
2022/11/07 08:46:16;;;;;;;;;;;;;;;21.67;60.37;100195.41;7256455;19;152415;-59
2022/11/07 08:48:43;;;;;;;;;;;;;;;21.66;60.54;100193.78;7258244;19;154040;-59
2022/11/07 08:51:11;;;;;;;;;;;;;;;21.66;60.30;100199.41;7258450;19;153947;-59
2022/11/07 08:53:38;;;;;;;;;;;;;;;21.66;60.17;100193.78;7259925;19;154171;-59
2022/11/07 08:56:07;;;;;;;;;;;;;;;21.65;60.24;100195.75;7256255;19;154502;-59
2022/11/07 08:58:35;;;;;;;;;;;;;;;21.66;60.48;100200.22;7265116;19;153572;-58
2022/11/07 09:01:05;;;;;;;;;;;;;;;21.68;60.73;100197.06;7252149;19;155624;-58
2022/11/07 09:03:35;;;;;;;;;;;;;;;21.71;61.26;100197.22;7257184;19;153712;-58
2022/11/07 09:06:29;;;;;;;;;;;;;;;21.71;60.77;100205.66;7253701;19;153447;-59
2022/11/07 09:08:59;;;;;;;;;;;;;;;21.54;58.64;100196.44;7255053;19;153973;-58
2022/11/07 09:11:26;;;;;;;;;;;;;;;21.45;57.87;100198.44;7251430;19;153396;-57
2022/11/07 09:13:54;;;;;;;;;;;;;;;21.41;57.85;100192.66;7253505;19;156408;-58
2022/11/07 09:16:21;;;;;;;;;;;;;;;21.28;58.98;100194.50;7250151;19;154403;-58
2022/11/07 09:18:49;;;;;;;;;;;;;;;21.20;58.57;100194.50;7254169;19;151798;-57
2022/11/07 09:21:17;;;;;;;;;;;;;;;21.23;59.25;100182.59;7262647;19;154006;-57
2022/11/07 09:23:48;;;;;;;;;;;;;;;21.26;59.43;100193.97;7255712;19;153323;-58
2022/11/07 09:26:19;;;;;;;;;;;;;;;21.27;58.93;100198.44;7252136;19;156384;-58
2022/11/07 09:28:46;;;;;;;;;;;;;;;21.25;58.84;100199.94;7252776;19;154240;-58
2022/11/07 09:31:25;;;;;;;;;;;;;;;21.23;58.49;100191.00;7254087;19;153020;-58
2022/11/07 09:34:47;;;;;;;;;;;;;;;21.22;58.87;100200.59;7253933;19;153989;-58
2022/11/07 09:37:38;;;;;;;;;;;;;;;21.21;58.41;100196.97;7251290;19;154642;-58
2022/11/07 09:40:05;;;;;;;;;;;;;;;21.23;58.67;100189.03;7250834;19;154271;-57
2022/11/07 09:52:13;;;;;;;;;;;;;;;21.27;58.79;100208.84;7252571;19;152555;-59
2022/11/07 09:54:44;;;;;;;;;;;;;;;21.26;58.98;100208.03;7258602;19;154268;-59
2022/11/07 09:57:14;;;;;;;;;;;;;;;21.26;58.93;100210.00;7279420;19;152925;-58
2022/11/07 09:59:44;;;;;;;;;;;;;;;21.27;58.99;100215.31;7260838;19;153571;-59
2022/11/07 10:02:13;;;;;;;;;;;;;;;21.31;59.56;100207.03;7249361;19;152720;-59
2022/11/07 10:04:41;;;;;;;;;;;;;;;21.33;59.15;100215.16;7254821;19;155232;-59
2022/11/07 10:07:20;;;;;;;;;;;;;;;21.36;59.15;100215.31;7249623;19;155129;-59
2022/11/07 10:09:54;;;;;;;;;;;;;;;21.40;59.31;100216.28;7259829;19;153580;-59
2022/11/07 10:12:32;;;;;;;;;;;;;;;21.43;59.50;100221.25;7252126;19;155021;-59
2022/11/07 10:15:22;;;;;;;;;;;;;;;21.45;59.42;100218.94;7252114;19;153912;-58
2022/11/07 10:18:07;;;;;;;;;;;;;;;21.48;59.22;100225.88;7251521;19;153207;-59
2022/11/07 10:20:37;;;;;;;;;;;;;;;21.51;59.34;100228.03;7255877;19;154915;-59
2022/11/07 10:23:07;;;;;;;;;;;;;;;21.53;59.02;100228.53;7232165;19;154309;-58
2022/11/07 10:25:36;;;;;;;;;;;;;;;21.53;59.14;100223.72;7248956;19;154407;-58
2022/11/07 10:28:06;;;;;;;;;;;;;;;21.56;58.84;100225.88;7250057;19;154889;-57
2022/11/07 10:30:33;;;;;;;;;;;;;;;21.58;59.08;100225.50;7250952;19;153653;-58
2022/11/07 10:32:59;;;;;;;;;;;;;;;21.59;59.05;100228.00;7259228;19;153604;-58
2022/11/07 10:35:30;;;;;;;;;;;;;;;21.60;58.84;100226.84;7252108;19;152833;-58
2022/11/07 10:37:59;;;;;;;;;;;;;;;21.61;59.19;100220.06;7252982;19;153443;-57
2022/11/07 10:40:30;;;;;;;;;;;;;;;21.61;59.11;100225.69;7246785;19;154898;-57
2022/11/07 10:42:57;;;;;;;;;;;;;;;21.62;58.92;100226.53;7251856;19;154422;-57
2022/11/07 10:45:24;;;;;;;;;;;;;;;21.62;58.73;100218.09;7250733;19;155490;-57
2022/11/07 10:48:02;;;;;;;;;;;;;;;21.63;58.70;100229.00;7250044;19;153492;-57
2022/11/07 10:50:29;;;;;;;;;;;;;;;21.62;59.07;100221.72;7251109;19;153526;-57
2022/11/07 10:52:57;;;;;;;;;;;;;;;21.62;59.00;100232.16;7252347;19;154273;-59
2022/11/07 10:55:25;;;;;;;;;;;;;;;21.62;58.63;100230.13;7257443;19;154043;-59
2022/11/07 10:57:58;;;;;;;;;;;;;;;21.60;59.03;100224.03;7248081;19;154933;-57
2022/11/07 11:00:26;;;;;;;;;;;;;;;21.62;58.52;100213.28;7248628;19;154244;-57
2022/11/07 11:02:55;;;;;;;;;;;;;;;21.61;58.54;100217.28;7253166;19;153175;-57
2022/11/07 11:05:23;;;;;;;;;;;;;;;21.60;58.70;100212.78;7251685;19;152812;-57
2022/11/07 11:07:50;;;;;;;;;;;;;;;21.58;58.75;100212.28;7251193;19;155441;-57
2022/11/07 11:10:19;;;;;;;;;;;;;;;21.60;58.47;100210.00;7251194;19;153648;-57
2022/11/07 11:12:47;;;;;;;;;;;;;;;21.59;58.53;100213.94;7249240;19;153038;-57
2022/11/07 11:15:21;;;;;;;;;;;;;;;21.58;58.64;100208.66;7254932;19;153629;-57
2022/11/07 11:17:57;;;;;;;;;;;;;;;21.58;58.57;100205.84;7250687;19;153063;-58
2022/11/07 11:20:32;;;;;;;;;;;;;;;21.57;58.89;100205.03;7250166;19;156534;-58
2022/11/07 11:23:00;;;;;;;;;;;;;;;21.58;58.54;100212.28;7249674;19;153340;-57
2022/11/07 11:25:26;;;;;;;;;;;;;;;21.57;58.51;100195.78;7250700;19;154237;-57
2022/11/07 11:27:56;;;;;;;;;;;;;;;21.58;59.09;100195.44;7255662;19;154062;-60
2022/11/07 11:30:22;;;;;;;;;;;;;;;21.60;59.03;100195.94;7252933;19;154390;-61
2022/11/07 11:32:59;;;;;;;;;;;;;;;21.57;58.80;100198.59;7253769;19;152943;-61
2022/11/07 11:35:30;;;;;;;;;;;;;;;21.56;58.61;100194.94;7256034;19;154152;-61
2022/11/07 11:38:10;;;;;;;;;;;;;;;21.54;58.88;100186.00;7265028;19;153651;-61
2022/11/07 11:40:39;;;;;;;;;;;;;;;21.54;58.63;100177.56;7256271;19;155070;-61
2022/11/07 11:43:20;;;;;;;;;;;;;;;21.54;58.50;100169.16;7257945;19;154032;-61
2022/11/07 11:45:59;;;;;;;;;;;;;;;21.52;58.31;100165.03;7256947;19;152772;-60
2022/11/07 11:48:32;;;;;;;;;;;;;;;21.51;58.30;100178.25;7259222;19;153735;-61
2022/11/07 11:51:05;;;;;;;;;;;;;;;21.51;58.44;100180.25;7256722;19;153740;-61
2022/11/07 11:53:32;;;;;;;;;;;;;;;21.49;58.31;100186.19;7259107;19;154090;-61
2022/11/07 11:56:20;;;;;;;;;;;;;;;21.50;58.55;100176.59;7255662;19;153836;-60
2022/11/07 11:58:53;;;;;;;;;;;;;;;21.49;58.16;100180.56;7257824;19;153800;-61
2022/11/07 12:01:20;;;;;;;;;;;;;;;21.50;58.44;100172.97;7266593;19;154423;-60
2022/11/07 12:04:13;;;;;;;;;;;;;;;21.49;57.99;100185.34;7257234;19;153231;-60
2022/11/07 12:06:43;;;;;;;;;;;;;;;21.45;58.32;100182.38;7257218;19;153303;-61
2022/11/07 12:09:19;;;;;;;;;;;;;;;21.45;58.58;100179.59;7260205;19;153913;-60
2022/11/07 12:11:58;;;;;;;;;;;;;;;21.43;58.59;100178.28;7254187;19;152952;-62
2022/11/07 12:14:35;;;;;;;;;;;;;;;21.42;58.47;100180.25;7253990;19;153637;-61
2022/11/07 12:17:08;;;;;;;;;;;;;;;21.40;58.40;100181.72;7257513;19;153284;-61
2022/11/07 12:19:44;;;;;;;;;;;;;;;21.39;58.43;100172.50;7234512;19;153728;-61
2022/11/07 12:22:38;;;;;;;;;;;;;;;21.40;58.26;100174.13;7256117;19;154278;-60
2022/11/07 12:25:14;;;;;;;;;;;;;;;21.37;58.57;100190.84;7256082;19;154861;-61
2022/11/07 12:27:43;;;;;;;;;;;;;;;21.36;58.46;100189.19;7234222;19;152870;-61
2022/11/07 12:30:13;;;;;;;;;;;;;;;21.34;58.47;100197.97;7250552;19;154715;-60
2022/11/07 12:33:00;;;;;;;;;;;;;;;21.33;58.54;100192.66;7250288;19;153874;-61
2022/11/07 12:35:34;;;;;;;;;;;;;;;21.30;58.77;100191.34;7252178;19;152541;-61
2022/11/07 12:38:19;;;;;;;;;;;;;;;21.29;58.71;100181.28;7253457;19;153687;-61
2022/11/07 12:41:05;;;;;;;;;;;;;;;21.28;58.80;100185.22;7254171;19;154840;-60
2022/11/07 12:43:46;;;;;;;;;;;;;;;21.27;58.89;100180.75;7255857;19;154201;-61
2022/11/07 12:46:25;;;;;;;;;;;;;;;21.24;59.08;100173.84;7255261;19;153505;-61
2022/11/07 12:49:03;;;;;;;;;;;;;;;21.26;59.18;100179.94;7266129;19;153991;-60
2022/11/07 12:51:33;;;;;;;;;;;;;;;21.24;59.50;100182.25;7255462;19;153866;-60
2022/11/07 12:54:34;;;;;;;;;;;;;;;21.23;59.41;100182.59;7256460;19;154333;-61
2022/11/07 12:57:03;;;;;;;;;;;;;;;21.21;59.95;100180.09;7256442;19;153910;-61
2022/11/07 12:59:35;;;;;;;;;;;;;;;21.15;60.75;100180.63;7253590;19;155231;-61
2022/11/07 13:02:10;;;;;;;;;;;;;;;21.13;60.99;100188.53;7256836;19;154396;-61
2022/11/07 13:04:44;;;;;;;;;;;;;;;21.16;60.85;100191.53;7256884;19;153729;-61